Time;durP1;ratioP1;P1;durP2;ratioP2;P2;SDS_P1;SDS_P2;PMS_P1;PMS_P2;Temp;Humidity;BMP_temperature;BMP_pressure;BME280_temperature;BME280_humidity;BME280_pressure;Samples;Min_cycle;Max_cycle;Signal;HPM_P1;HPM_P2
2021/08/26 00:07:35;;;;;;;0.80;0.57;;;17.00;99.90;;;;;;5040635;28;20055;-84
2021/08/26 00:10:06;;;;;;;0.20;0.20;;;17.00;99.90;;;;;;5041244;28;20576;-84
2021/08/26 00:12:33;;;;;;;5.93;1.50;;;16.90;99.90;;;;;;5028517;28;20059;-84
2021/08/26 00:15:02;;;;;;;0.20;0.20;;;16.70;99.90;;;;;;5038497;28;20048;-84
2021/08/26 00:17:28;;;;;;;0.40;0.40;;;16.70;99.90;;;;;;5040429;28;20514;-84
2021/08/26 00:19:53;;;;;;;0.87;0.87;;;16.60;99.90;;;;;;5040732;28;20040;-84
2021/08/26 00:22:20;;;;;;;0.30;0.30;;;16.70;99.90;;;;;;5040355;28;20073;-84
2021/08/26 00:24:46;;;;;;;0.30;0.30;;;16.80;99.90;;;;;;5042668;28;20044;-84
2021/08/26 00:27:12;;;;;;;0.70;0.70;;;16.80;99.90;;;;;;5042777;28;20630;-84
2021/08/26 00:29:38;;;;;;;0.20;0.20;;;16.80;99.90;;;;;;5042114;28;20043;-85
2021/08/26 00:32:05;;;;;;;0.15;0.15;;;16.70;99.90;;;;;;5042854;28;20520;-84
2021/08/26 00:34:30;;;;;;;0.22;0.22;;;16.50;99.90;;;;;;5039523;28;20047;-84
2021/08/26 00:36:56;;;;;;;0.10;0.10;;;16.50;99.90;;;;;;5057162;28;20030;-83
2021/08/26 00:39:22;;;;;;;0.27;0.27;;;16.70;99.90;;;;;;5043236;28;20034;-84
2021/08/26 00:41:47;;;;;;;0.20;0.20;;;16.60;99.90;;;;;;5041894;28;20029;-84
2021/08/26 00:44:13;;;;;;;1.50;0.50;;;16.60;99.90;;;;;;5039515;28;20029;-84
2021/08/26 00:46:40;;;;;;;0.10;0.10;;;16.60;99.90;;;;;;5037307;28;20042;-83
2021/08/26 00:49:12;;;;;;;;;;;16.60;99.90;;;;;;5036892;28;20036;-84
2021/08/26 00:51:39;;;;;;;0.22;0.20;;;16.50;99.90;;;;;;5042116;28;19912;-84
2021/08/26 00:54:05;;;;;;;0.10;0.10;;;16.40;99.90;;;;;;5029477;28;20572;-84
2021/08/26 00:56:31;;;;;;;0.28;0.28;;;16.60;99.90;;;;;;5039759;28;20032;-84
2021/08/26 00:58:59;;;;;;;0.77;0.30;;;16.60;99.90;;;;;;5039749;28;20132;-84
2021/08/26 01:01:43;;;;;;;0.77;0.30;;;16.50;99.90;;;;;;5039520;28;20087;-85
2021/08/26 01:04:33;;;;;;;0.10;0.10;;;16.50;99.90;;;;;;5039600;28;20053;-84
2021/08/26 01:07:04;;;;;;;0.20;0.20;;;16.30;99.90;;;;;;5028570;28;20375;-84
2021/08/26 01:09:43;;;;;;;0.10;0.10;;;16.30;99.90;;;;;;5027487;28;20506;-84
2021/08/26 01:12:11;;;;;;;0.25;0.25;;;16.20;99.90;;;;;;5038209;28;20576;-85
2021/08/26 01:14:37;;;;;;;0.30;0.30;;;16.20;99.90;;;;;;5040711;28;20759;-84
2021/08/26 01:17:04;;;;;;;0.28;0.28;;;16.20;99.90;;;;;;5039235;28;20035;-84
2021/08/26 01:19:29;;;;;;;0.47;0.47;;;16.30;99.90;;;;;;5038667;28;20032;-85
2021/08/26 01:21:55;;;;;;;0.20;0.20;;;16.30;99.90;;;;;;5043116;28;20028;-84
2021/08/26 01:24:23;;;;;;;0.20;0.20;;;16.30;99.90;;;;;;5026743;28;20033;-84
2021/08/26 01:26:53;;;;;;;0.20;0.20;;;16.30;99.90;;;;;;5056559;28;20914;-84
2021/08/26 01:29:20;;;;;;;0.35;0.35;;;16.30;99.90;;;;;;5038719;28;20466;-83
2021/08/26 01:31:47;;;;;;;0.52;0.52;;;16.20;99.90;;;;;;5038928;28;20025;-84
2021/08/26 01:34:14;;;;;;;0.13;0.13;;;16.10;99.90;;;;;;5038860;28;20040;-84
2021/08/26 01:36:40;;;;;;;0.45;0.45;;;16.20;99.90;;;;;;5042402;28;20043;-83
2021/08/26 01:39:10;;;;;;;0.60;0.53;;;16.10;99.90;;;;;;5040752;28;20501;-83
2021/08/26 01:41:53;;;;;;;0.35;0.35;;;16.10;99.90;;;;;;5043704;28;20512;-84
2021/08/26 01:44:29;;;;;;;0.40;0.40;;;16.10;99.90;;;;;;5039704;28;20053;-84
2021/08/26 01:47:12;;;;;;;0.75;0.40;;;15.90;99.90;;;;;;5037878;28;20089;-84
2021/08/26 01:49:37;;;;;;;0.10;0.10;;;15.90;99.90;;;;;;5040763;28;20695;-83
2021/08/26 01:52:03;;;;;;;0.40;0.40;;;15.90;99.90;;;;;;5041017;28;20051;-84
2021/08/26 01:54:29;;;;;;;0.97;0.60;;;15.80;99.90;;;;;;5042188;28;20033;-84
2021/08/26 01:56:56;;;;;;;0.20;0.20;;;15.80;99.90;;;;;;5044494;28;20271;-83
2021/08/26 01:59:22;;;;;;;0.65;0.65;;;15.90;99.90;;;;;;5043035;28;20029;-84
2021/08/26 02:01:48;;;;;;;0.40;0.20;;;15.90;99.90;;;;;;5042483;28;20087;-84
2021/08/26 02:04:13;;;;;;;0.40;0.40;;;15.90;99.90;;;;;;5039871;28;20025;-84
2021/08/26 02:06:39;;;;;;;0.10;0.10;;;15.80;99.90;;;;;;5041039;28;20065;-83
2021/08/26 02:09:05;;;;;;;0.23;0.23;;;15.80;99.90;;;;;;5043179;28;20068;-84
2021/08/26 02:11:30;;;;;;;0.10;0.10;;;15.90;99.90;;;;;;5041996;28;20147;-84
2021/08/26 02:13:56;;;;;;;1.23;0.67;;;15.80;99.90;;;;;;5041799;28;20091;-84
2021/08/26 02:16:22;;;;;;;0.20;0.20;;;15.80;99.90;;;;;;5040274;28;20112;-84
2021/08/26 02:18:47;;;;;;;0.73;0.70;;;15.60;99.90;;;;;;5041686;28;20033;-84
2021/08/26 02:21:13;;;;;;;0.10;0.10;;;15.70;99.90;;;;;;5043149;28;20021;-84
2021/08/26 02:23:39;;;;;;;0.33;0.30;;;15.70;99.90;;;;;;5043784;28;20512;-84
2021/08/26 02:26:05;;;;;;;0.60;0.60;;;15.70;99.90;;;;;;5042131;28;20708;-85
2021/08/26 02:28:31;;;;;;;1.45;0.52;;;15.60;99.90;;;;;;5041478;28;20036;-85
2021/08/26 02:30:57;;;;;;;0.20;0.20;;;15.60;99.90;;;;;;5040299;28;20037;-83
2021/08/26 02:33:22;;;;;;;0.63;0.37;;;15.60;99.90;;;;;;5041468;28;20049;-84
2021/08/26 02:35:48;;;;;;;0.37;0.37;;;15.50;99.90;;;;;;5042623;28;20040;-84
2021/08/26 02:38:14;;;;;;;0.30;0.30;;;15.50;99.90;;;;;;5039057;28;20036;-84
2021/08/26 02:40:39;;;;;;;3.73;0.73;;;15.60;99.90;;;;;;5039975;28;20060;-85
2021/08/26 02:43:05;;;;;;;0.10;0.10;;;15.60;99.90;;;;;;5042295;28;20029;-84
2021/08/26 02:45:31;;;;;;;0.10;0.10;;;15.50;99.90;;;;;;5041562;28;20029;-84
2021/08/26 02:47:56;;;;;;;0.40;0.40;;;15.50;99.90;;;;;;5043875;28;20032;-85
2021/08/26 02:50:22;;;;;;;0.30;0.30;;;15.30;99.90;;;;;;5041549;28;20031;-84
2021/08/26 02:52:48;;;;;;;2.50;1.20;;;15.40;99.90;;;;;;5041366;28;20049;-84
2021/08/26 02:55:13;;;;;;;0.37;0.37;;;15.40;99.90;;;;;;5041498;28;20071;-84
2021/08/26 02:57:39;;;;;;;0.50;0.50;;;15.40;99.90;;;;;;5041241;28;20408;-84
2021/08/26 03:00:06;;;;;;;0.40;0.40;;;15.40;99.90;;;;;;5043825;28;20535;-84
2021/08/26 03:02:32;;;;;;;1.52;0.35;;;15.20;99.90;;;;;;5038688;28;20021;-84
2021/08/26 03:04:58;;;;;;;0.37;0.37;;;15.10;99.90;;;;;;5034938;28;20059;-84
2021/08/26 03:07:24;;;;;;;0.30;0.30;;;15.10;99.90;;;;;;5028807;28;20076;-84
2021/08/26 03:09:50;;;;;;;0.40;0.40;;;15.10;99.90;;;;;;5040172;28;20505;-85
2021/08/26 03:12:15;;;;;;;0.20;0.20;;;15.00;99.90;;;;;;5022663;28;20029;-84
2021/08/26 03:14:41;;;;;;;0.30;0.30;;;15.00;99.90;;;;;;5039690;28;20021;-84
2021/08/26 03:17:07;;;;;;;2.83;1.33;;;15.00;99.90;;;;;;5041588;28;20029;-84
2021/08/26 03:19:33;;;;;;;0.10;0.10;;;14.90;99.90;;;;;;5036715;28;20021;-86
2021/08/26 03:21:58;;;;;;;0.30;0.30;;;14.80;99.90;;;;;;5038610;28;20528;-84
2021/08/26 03:24:24;;;;;;;0.10;0.10;;;14.80;99.90;;;;;;5041175;28;20034;-84
2021/08/26 03:26:50;;;;;;;0.23;0.23;;;14.90;99.90;;;;;;5039814;28;20397;-85
2021/08/26 03:29:15;;;;;;;0.33;0.33;;;15.00;99.90;;;;;;5037013;28;20489;-85
2021/08/26 03:31:41;;;;;;;0.10;0.10;;;14.90;99.90;;;;;;5052285;28;20040;-85
2021/08/26 03:34:07;;;;;;;0.30;0.30;;;14.90;99.90;;;;;;5037005;28;20941;-85
2021/08/26 03:36:32;;;;;;;0.33;0.33;;;14.90;99.90;;;;;;5041766;28;20466;-85
2021/08/26 03:38:58;;;;;;;0.40;0.40;;;14.80;99.90;;;;;;5039645;28;20037;-85
2021/08/26 03:41:24;;;;;;;0.30;0.30;;;14.70;99.90;;;;;;5037067;28;20124;-85
2021/08/26 03:43:50;;;;;;;0.43;0.27;;;14.70;99.90;;;;;;5052101;28;20040;-84
2021/08/26 03:46:16;;;;;;;0.50;0.50;;;14.60;99.90;;;;;;5037306;28;20232;-84
2021/08/26 03:48:42;;;;;;;1.03;0.60;;;14.70;99.90;;;;;;5039965;28;20658;-85
2021/08/26 03:51:07;;;;;;;0.10;0.10;;;14.60;99.90;;;;;;5039715;28;20025;-85
2021/08/26 03:53:33;;;;;;;0.43;0.43;;;14.60;99.90;;;;;;5053087;28;20043;-84
2021/08/26 03:55:59;;;;;;;0.30;0.30;;;14.60;99.90;;;;;;5036789;28;20091;-85
2021/08/26 03:58:24;;;;;;;1.03;0.50;;;14.50;99.90;;;;;;5040752;28;20101;-84
2021/08/26 04:00:50;;;;;;;0.20;0.20;;;14.40;99.90;;;;;;5039722;28;20040;-84
2021/08/26 04:03:16;;;;;;;0.23;0.23;;;14.40;99.90;;;;;;5038067;28;20056;-84
2021/08/26 04:05:41;;;;;;;0.30;0.30;;;14.40;99.90;;;;;;5039037;28;20121;-84
2021/08/26 04:08:07;;;;;;;0.10;0.10;;;14.60;99.90;;;;;;5032522;28;20119;-84
2021/08/26 04:10:33;;;;;;;0.40;0.40;;;14.50;99.90;;;;;;5031106;28;20036;-85
2021/08/26 04:12:58;;;;;;;0.43;0.43;;;14.50;99.90;;;;;;5041822;28;20068;-84
2021/08/26 04:15:24;;;;;;;0.20;0.20;;;14.60;99.90;;;;;;5043964;28;20033;-86
2021/08/26 04:17:50;;;;;;;1.10;0.70;;;14.50;99.90;;;;;;5057303;28;20615;-85
2021/08/26 04:20:15;;;;;;;1.10;0.70;;;14.30;99.90;;;;;;5035094;28;20034;-84
2021/08/26 04:22:41;;;;;;;0.10;0.10;;;14.40;99.90;;;;;;5033382;28;20118;-86
2021/08/26 04:25:08;;;;;;;1.67;1.17;;;14.40;99.90;;;;;;5040584;28;20033;-83
2021/08/26 04:27:34;;;;;;;0.95;0.50;;;14.40;99.90;;;;;;5044501;28;20037;-84
2021/08/26 04:30:00;;;;;;;0.77;0.57;;;14.30;99.90;;;;;;5042545;28;20017;-84
2021/08/26 04:32:25;;;;;;;0.10;0.10;;;14.40;99.90;;;;;;5039669;28;20563;-84
2021/08/26 04:34:51;;;;;;;0.77;0.77;;;14.30;99.90;;;;;;5039795;28;20040;-85
2021/08/26 04:37:17;;;;;;;0.40;0.40;;;14.20;99.90;;;;;;5054484;28;20029;-83
2021/08/26 04:39:42;;;;;;;0.40;0.40;;;14.30;99.90;;;;;;5043269;28;20036;-85
2021/08/26 04:42:08;;;;;;;0.23;0.23;;;14.10;99.90;;;;;;5042355;28;20118;-84
2021/08/26 04:44:34;;;;;;;0.63;0.43;;;14.10;99.90;;;;;;5040857;28;20565;-84
2021/08/26 04:47:00;;;;;;;0.83;0.47;;;14.00;99.90;;;;;;5039201;28;20040;-85
2021/08/26 04:49:26;;;;;;;2.80;0.83;;;14.10;99.90;;;;;;5039187;28;20068;-85
2021/08/26 04:51:51;;;;;;;0.30;0.20;;;14.10;99.90;;;;;;5041539;28;20037;-84
2021/08/26 04:54:18;;;;;;;0.93;0.93;;;14.10;99.90;;;;;;5040430;28;20056;-84
2021/08/26 04:56:44;;;;;;;;;;;14.10;99.90;;;;;;5043082;28;20028;-84
2021/08/26 04:59:09;;;;;;;0.60;0.40;;;14.10;99.90;;;;;;5039499;28;20022;-82
2021/08/26 05:01:35;;;;;;;0.23;0.23;;;14.00;99.90;;;;;;5039081;28;20486;-84
2021/08/26 05:04:03;;;;;;;0.43;0.43;;;14.10;99.90;;;;;;5033479;28;20040;-84
2021/08/26 05:06:31;;;;;;;0.20;0.20;;;14.00;99.90;;;;;;5041385;28;20037;-84
2021/08/26 05:08:56;;;;;;;0.43;0.43;;;13.90;99.90;;;;;;5044502;28;20045;-84
2021/08/26 05:11:22;;;;;;;0.43;0.43;;;13.90;99.90;;;;;;5039033;28;20040;-84
2021/08/26 05:13:48;;;;;;;0.10;0.10;;;14.00;99.90;;;;;;5038364;28;20562;-85
2021/08/26 05:16:14;;;;;;;0.20;0.20;;;14.00;99.90;;;;;;5039563;28;20055;-84
2021/08/26 05:18:39;;;;;;;0.43;0.43;;;13.90;99.90;;;;;;5040674;28;20766;-85
2021/08/26 05:21:05;;;;;;;0.20;0.20;;;13.80;99.90;;;;;;5043568;28;20283;-85
2021/08/26 05:23:31;;;;;;;0.50;0.50;;;14.00;99.90;;;;;;5042226;28;20036;-85
2021/08/26 05:25:56;;;;;;;0.20;0.20;;;14.60;99.90;;;;;;5042692;28;20498;-84
2021/08/26 05:28:22;;;;;;;0.10;0.10;;;14.50;99.90;;;;;;5041488;28;20063;-86
2021/08/26 05:30:48;;;;;;;0.10;0.10;;;14.70;99.90;;;;;;5040718;28;20097;-85
2021/08/26 05:33:14;;;;;;;0.20;0.20;;;15.00;99.90;;;;;;5042496;28;20037;-83
2021/08/26 05:35:39;;;;;;;1.27;0.73;;;15.40;99.90;;;;;;5042557;28;20132;-85
2021/08/26 05:38:05;;;;;;;0.13;0.13;;;14.50;99.90;;;;;;5042370;28;20083;-85
2021/08/26 05:40:31;;;;;;;0.40;0.40;;;14.50;99.90;;;;;;5039415;28;20029;-84
2021/08/26 05:42:57;;;;;;;0.20;0.20;;;14.50;99.90;;;;;;5040364;28;20033;-84
2021/08/26 05:45:22;;;;;;;0.30;0.30;;;14.50;99.90;;;;;;5024237;28;20026;-86
2021/08/26 05:47:54;;;;;;;0.40;0.40;;;14.70;99.90;;;;;;5026879;28;20087;-85
2021/08/26 05:50:21;;;;;;;0.20;0.20;;;14.60;99.90;;;;;;5037485;28;20063;-84
2021/08/26 05:52:48;;;;;;;0.40;0.40;;;14.70;99.90;;;;;;5038326;28;20044;-85
2021/08/26 05:55:13;;;;;;;0.10;0.10;;;14.80;99.90;;;;;;5042349;28;20078;-85
2021/08/26 05:57:39;;;;;;;0.40;0.40;;;14.90;99.90;;;;;;5040042;28;20057;-85
2021/08/26 06:00:05;;;;;;;0.33;0.33;;;14.90;99.90;;;;;;5042206;28;20424;-90
2021/08/26 06:02:31;;;;;;;0.40;0.40;;;15.10;99.90;;;;;;5041033;28;20517;-90
2021/08/26 06:04:57;;;;;;;0.20;0.20;;;15.40;99.90;;;;;;5042182;28;20147;-91
2021/08/26 06:07:22;;;;;;;0.20;0.20;;;15.60;99.90;;;;;;5039962;28;20034;-91
2021/08/26 06:09:48;;;;;;;0.87;0.87;;;15.70;99.90;;;;;;5046536;28;20090;-92
2021/08/26 06:12:14;;;;;;;0.47;0.43;;;15.70;99.90;;;;;;5045930;28;20668;-91
2021/08/26 06:14:39;;;;;;;0.30;0.30;;;15.90;99.90;;;;;;5028248;28;20742;-91
2021/08/26 06:17:05;;;;;;;0.10;0.10;;;16.10;99.90;;;;;;5038755;28;20033;-89
2021/08/26 06:19:31;;;;;;;0.60;0.60;;;16.20;99.90;;;;;;5038725;28;20033;-92
2021/08/26 06:21:56;;;;;;;0.93;0.60;;;16.40;99.90;;;;;;5043749;28;20025;-90
2021/08/26 06:24:22;;;;;;;0.20;0.20;;;16.60;99.90;;;;;;5044552;28;20597;-91
2021/08/26 06:26:48;;;;;;;0.30;0.30;;;16.60;99.90;;;;;;5031725;28;20102;-91
2021/08/26 06:29:13;;;;;;;0.67;0.63;;;16.60;99.90;;;;;;5030041;28;20355;-91
2021/08/26 06:31:39;;;;;;;0.40;0.40;;;16.70;99.90;;;;;;5032724;28;20099;-89
2021/08/26 06:34:05;;;;;;;0.20;0.20;;;16.90;99.90;;;;;;5041563;28;20170;-90
2021/08/26 06:36:31;;;;;;;0.60;0.60;;;17.00;99.90;;;;;;5043128;28;20106;-92
2021/08/26 06:38:58;;;;;;;0.13;0.13;;;17.20;99.90;;;;;;5047368;28;20497;-91
2021/08/26 06:41:25;;;;;;;0.10;0.10;;;17.40;99.90;;;;;;5029476;28;20033;-88
2021/08/26 06:43:50;;;;;;;0.30;0.30;;;17.20;99.90;;;;;;5034864;28;20037;-91
2021/08/26 06:46:16;;;;;;;0.10;0.10;;;17.50;99.90;;;;;;5028648;28;20042;-90
2021/08/26 06:48:42;;;;;;;0.33;0.30;;;17.60;99.90;;;;;;5043305;28;20033;-93
2021/08/26 06:51:08;;;;;;;0.77;0.25;;;17.40;99.90;;;;;;5039201;28;20500;-92
2021/08/26 06:53:34;;;;;;;0.37;0.37;;;17.50;99.90;;;;;;5048983;28;20159;-92
2021/08/26 06:56:00;;;;;;;0.10;0.10;;;17.80;99.90;;;;;;5044326;28;20522;-91
2021/08/26 06:58:25;;;;;;;0.20;0.17;;;17.90;99.90;;;;;;5043205;28;20068;-91
2021/08/26 07:00:51;;;;;;;0.83;0.40;;;18.20;99.90;;;;;;5043913;28;20099;-92
2021/08/26 07:03:16;;;;;;;0.00;0.00;;;18.10;99.90;;;;;;5046652;28;20390;-90
2021/08/26 07:05:42;;;;;;;0.00;0.00;;;18.40;99.90;;;;;;5044565;28;20036;-90
2021/08/26 07:08:08;;;;;;;1.03;1.03;;;18.40;99.90;;;;;;5037664;28;20049;-89
2021/08/26 07:10:33;;;;;;;0.13;0.13;;;18.40;99.90;;;;;;5057658;28;20056;-89
2021/08/26 07:12:59;;;;;;;0.53;0.50;;;19.00;99.90;;;;;;5046227;28;20029;-92
2021/08/26 07:15:25;;;;;;;1.03;0.77;;;19.30;99.90;;;;;;5045428;28;20029;-92
2021/08/26 07:17:52;;;;;;;0.98;0.40;;;20.80;99.90;;;;;;5042650;28;20063;-90
2021/08/26 07:20:18;;;;;;;0.00;0.00;;;23.90;99.90;;;;;;5049405;28;20038;-92
2021/08/26 07:22:44;;;;;;;0.30;0.30;;;25.10;98.70;;;;;;5031107;28;20510;-92
2021/08/26 07:25:10;;;;;;;1.25;0.50;;;24.70;95.80;;;;;;5029304;28;20044;-92
2021/08/26 07:27:36;;;;;;;2.05;0.30;;;25.40;95.00;;;;;;5042059;28;20584;-90
2021/08/26 07:30:02;;;;;;;0.37;0.37;;;26.40;93.20;;;;;;5030681;28;20120;-91
2021/08/26 07:32:28;;;;;;;0.10;0.10;;;28.20;87.20;;;;;;5030603;28;20291;-91
2021/08/26 07:34:54;;;;;;;0.00;0.00;;;28.20;82.00;;;;;;5030626;28;20041;-91
2021/08/26 07:37:19;;;;;;;0.10;0.10;;;28.10;91.00;;;;;;5028886;28;20033;-91
2021/08/26 07:39:45;;;;;;;0.03;0.03;;;27.50;82.40;;;;;;5041864;28;20041;-90
2021/08/26 07:42:11;;;;;;;0.50;0.50;;;27.40;82.00;;;;;;5041015;28;20029;-90
2021/08/26 07:44:37;;;;;;;0.10;0.10;;;27.30;81.00;;;;;;5051767;28;20037;-92
2021/08/26 07:47:02;;;;;;;0.10;0.03;;;27.30;76.30;;;;;;5051940;28;20593;-91
2021/08/26 07:49:28;;;;;;;0.00;0.00;;;28.40;75.00;;;;;;5034388;28;20037;-91
2021/08/26 07:51:54;;;;;;;0.40;0.38;;;28.30;74.80;;;;;;5032360;28;20024;-91
2021/08/26 07:54:19;;;;;;;0.13;0.13;;;29.60;67.30;;;;;;5047999;28;20051;-92
2021/08/26 07:56:45;;;;;;;0.22;0.22;;;28.40;66.90;;;;;;5039893;28;20018;-93
2021/08/26 07:59:11;;;;;;;0.00;0.00;;;28.40;72.20;;;;;;5035343;28;20440;-94
2021/08/26 08:01:36;;;;;;;0.10;0.10;;;30.10;59.70;;;;;;5049620;28;20135;-94
2021/08/26 08:04:02;;;;;;;0.13;0.10;;;31.70;57.80;;;;;;5043935;28;20611;-95
2021/08/26 08:06:28;;;;;;;1.88;0.45;;;29.20;59.10;;;;;;5045486;28;20028;-93
2021/08/26 08:08:53;;;;;;;0.55;0.32;;;31.20;56.20;;;;;;5063618;28;20136;-94
2021/08/26 08:11:19;;;;;;;1.63;0.47;;;33.50;47.00;;;;;;5043058;28;20030;-92
2021/08/26 08:13:45;;;;;;;5.07;0.75;;;31.70;47.90;;;;;;5047283;28;20051;-95
2021/08/26 08:16:11;;;;;;;1.30;0.55;;;31.60;50.10;;;;;;5056141;28;20021;-93
2021/08/26 08:18:37;;;;;;;0.13;0.13;;;31.60;46.70;;;;;;5034701;28;20406;-91
2021/08/26 08:21:03;;;;;;;0.15;0.10;;;32.80;42.40;;;;;;5042251;28;20025;-92
2021/08/26 08:23:30;;;;;;;0.10;0.10;;;32.40;44.60;;;;;;5039849;28;20044;-91
2021/08/26 08:25:56;;;;;;;0.22;0.22;;;30.80;47.50;;;;;;5042979;28;20033;-93
2021/08/26 08:28:22;;;;;;;;;;;31.70;43.00;;;;;;5042187;28;20029;-92
2021/08/26 08:30:48;;;;;;;0.00;0.00;;;31.80;46.80;;;;;;5037948;28;19924;-93
2021/08/26 08:33:13;;;;;;;0.17;0.17;;;32.40;40.70;;;;;;5030536;28;20516;-92
2021/08/26 08:35:39;;;;;;;0.30;0.20;;;31.00;47.10;;;;;;5038542;28;20728;-92
2021/08/26 08:38:05;;;;;;;0.17;0.17;;;33.50;42.30;;;;;;5033071;28;20025;-90
2021/08/26 08:40:32;;;;;;;;;;;32.80;37.40;;;;;;5031877;28;20481;-92
2021/08/26 08:42:58;;;;;;;1.10;0.43;;;32.90;35.40;;;;;;5028476;28;20008;-92
2021/08/26 08:45:24;;;;;;;1.00;0.60;;;33.30;37.90;;;;;;5033697;28;20013;-91
2021/08/26 08:47:51;;;;;;;0.32;0.32;;;34.00;35.20;;;;;;5029030;28;20044;-92
2021/08/26 08:50:25;;;;;;;0.22;0.22;;;32.30;39.50;;;;;;5037389;28;20541;-93
2021/08/26 08:52:52;;;;;;;0.17;0.17;;;30.70;38.30;;;;;;5034547;28;20124;-92
2021/08/26 08:55:19;;;;;;;0.00;0.00;;;33.30;37.00;;;;;;5039823;28;20036;-92
2021/08/26 08:57:45;;;;;;;3.53;1.08;;;32.50;35.90;;;;;;5036054;28;20107;-92
2021/08/26 09:00:12;;;;;;;;;;;35.70;29.90;;;;;;5048704;28;20422;-91
2021/08/26 09:02:39;;;;;;;0.20;0.20;;;34.90;28.30;;;;;;5043141;28;20007;-92
2021/08/26 09:05:05;;;;;;;1.23;0.55;;;36.00;26.20;;;;;;5050741;28;20037;-91
2021/08/26 09:07:32;;;;;;;;;;;37.40;24.60;;;;;;5035136;28;20041;-91
2021/08/26 09:09:58;;;;;;;0.03;0.03;;;36.60;21.90;;;;;;5039219;28;19920;-93
2021/08/26 09:12:50;;;;;;;0.47;0.40;;;36.60;22.70;;;;;;5029119;28;20031;-91
2021/08/26 09:15:19;;;;;;;0.17;0.13;;;38.00;20.30;;;;;;5031037;28;20030;-92
2021/08/26 09:17:46;;;;;;;0.40;0.35;;;36.70;24.80;;;;;;5031864;28;20033;-92
2021/08/26 09:20:19;;;;;;;0.35;0.20;;;37.10;25.80;;;;;;5027897;28;20037;-92
2021/08/26 09:22:46;;;;;;;0.10;0.10;;;39.80;18.10;;;;;;5031896;28;20097;-94
2021/08/26 09:25:22;;;;;;;0.10;0.10;;;38.80;20.40;;;;;;5034781;28;20032;-93
2021/08/26 09:27:47;;;;;;;0.13;0.13;;;35.30;19.90;;;;;;5030259;28;20041;-92
2021/08/26 09:30:19;;;;;;;0.00;0.00;;;35.80;17.30;;;;;;5031148;28;20025;-93
2021/08/26 09:32:56;;;;;;;0.40;0.40;;;37.50;15.80;;;;;;5033169;28;20117;-93
2021/08/26 09:35:26;;;;;;;0.55;0.55;;;38.20;10.70;;;;;;5038814;28;20047;-92
2021/08/26 09:38:10;;;;;;;0.20;0.20;;;35.80;17.40;;;;;;5041141;28;20506;-92
2021/08/26 09:40:46;;;;;;;0.10;0.10;;;35.40;17.20;;;;;;5041494;28;20058;-93
2021/08/26 09:43:12;;;;;;;0.10;0.10;;;39.10;12.50;;;;;;5044183;28;20121;-93
2021/08/26 09:45:39;;;;;;;0.70;0.20;;;39.60;9.40;;;;;;5044315;28;20116;-94
2021/08/26 09:48:12;;;;;;;0.05;0.05;;;37.80;11.50;;;;;;5044861;28;20025;-93
2021/08/26 09:50:42;;;;;;;1.55;0.73;;;36.60;11.80;;;;;;5042956;28;20033;-93
2021/08/26 09:53:09;;;;;;;0.20;0.20;;;36.90;15.10;;;;;;5036374;28;20140;-93
2021/08/26 09:55:53;;;;;;;0.68;0.38;;;37.20;16.70;;;;;;5032036;28;20044;-91
2021/08/26 09:58:20;;;;;;;0.22;0.22;;;40.50;8.60;;;;;;5044263;28;20516;-92
2021/08/26 10:00:47;;;;;;;0.10;0.10;;;40.00;6.90;;;;;;5027426;28;20041;-93
2021/08/26 10:03:15;;;;;;;0.32;0.20;;;37.70;8.60;;;;;;5027008;28;20376;-92
2021/08/26 10:05:43;;;;;;;0.28;0.28;;;38.50;7.10;;;;;;5028776;28;20100;-92
2021/08/26 10:08:10;;;;;;;0.43;0.43;;;40.00;6.20;;;;;;5040440;28;20416;-93
2021/08/26 10:10:38;;;;;;;0.17;0.10;;;40.30;3.40;;;;;;5046108;28;20039;-93
2021/08/26 10:13:04;;;;;;;0.05;0.05;;;40.80;2.20;;;;;;5055852;28;20523;-94
2021/08/26 10:15:29;;;;;;;2.90;0.70;;;39.20;5.70;;;;;;5030700;28;20021;-93
2021/08/26 10:17:55;;;;;;;0.10;0.10;;;37.80;9.10;;;;;;5048761;28;20128;-93
2021/08/26 10:20:22;;;;;;;0.20;0.20;;;37.40;9.20;;;;;;5045149;28;20036;-92
2021/08/26 10:22:48;;;;;;;0.00;0.00;;;36.30;11.20;;;;;;5036086;28;20513;-92
2021/08/26 10:25:15;;;;;;;2.97;1.33;;;36.50;8.90;;;;;;5035218;28;20112;-93
2021/08/26 10:27:43;;;;;;;0.10;0.10;;;36.50;12.60;;;;;;5044085;28;20037;-93
2021/08/26 10:30:09;;;;;;;0.00;0.00;;;37.70;10.70;;;;;;5063213;28;20489;-93
2021/08/26 10:32:35;;;;;;;0.52;0.50;;;37.70;7.30;;;;;;5044271;28;20037;-92
2021/08/26 10:35:11;;;;;;;0.10;0.10;;;39.10;4.60;;;;;;5036034;28;20066;-93
2021/08/26 10:37:57;;;;;;;5.72;0.47;;;39.90;5.00;;;;;;5036493;28;20025;-93
2021/08/26 10:40:25;;;;;;;0.15;0.15;;;40.20;4.40;;;;;;5043782;28;20032;-92
2021/08/26 10:42:51;;;;;;;0.47;0.28;;;39.80;7.20;;;;;;5042120;28;20108;-93
2021/08/26 10:45:22;;;;;;;0.22;0.17;;;39.80;9.70;;;;;;5028593;28;20172;-93
2021/08/26 10:47:48;;;;;;;0.63;0.45;;;39.10;9.90;;;;;;5043310;28;20421;-92
2021/08/26 10:50:20;;;;;;;0.20;0.10;;;37.90;15.00;;;;;;5038058;28;20029;-92
2021/08/26 10:52:56;;;;;;;0.10;0.10;;;34.90;23.10;;;;;;5035282;28;20041;-93
2021/08/26 10:55:46;;;;;;;0.00;0.00;;;33.10;24.10;;;;;;5044902;28;20029;-93
2021/08/26 10:58:28;;;;;;;0.10;0.10;;;31.80;25.60;;;;;;5032317;28;20085;-93
2021/08/26 11:00:55;;;;;;;0.85;0.75;;;30.70;28.30;;;;;;5031776;28;20025;-93
2021/08/26 11:03:33;;;;;;;0.30;0.30;;;29.40;29.90;;;;;;5047227;28;20033;-92
2021/08/26 11:06:00;;;;;;;0.30;0.30;;;29.80;30.10;;;;;;5043083;28;20076;-94
2021/08/26 11:08:31;;;;;;;0.00;0.00;;;28.60;33.50;;;;;;5034063;28;20053;-93
2021/08/26 11:11:17;;;;;;;0.03;0.03;;;27.90;34.90;;;;;;5027627;28;20037;-92
2021/08/26 11:13:43;;;;;;;0.63;0.47;;;28.10;35.50;;;;;;5030412;28;20041;-93
2021/08/26 11:16:23;;;;;;;0.10;0.10;;;28.70;35.70;;;;;;5033108;28;20025;-93
2021/08/26 11:18:56;;;;;;;0.00;0.00;;;29.40;33.40;;;;;;5042872;28;20030;-93
2021/08/26 11:21:44;;;;;;;0.00;0.00;;;29.60;32.80;;;;;;5049536;28;20106;-93
2021/08/26 11:24:12;;;;;;;0.20;0.20;;;29.50;33.00;;;;;;5032047;28;20029;-93
2021/08/26 11:27:04;;;;;;;0.00;0.00;;;29.00;34.00;;;;;;5047998;28;20064;-93
2021/08/26 11:29:37;;;;;;;0.25;0.25;;;29.30;33.50;;;;;;5047629;28;20040;-92
2021/08/26 11:32:05;;;;;;;0.75;0.40;;;29.60;35.10;;;;;;5047043;28;20025;-92
2021/08/26 11:34:36;;;;;;;0.20;0.20;;;29.50;34.10;;;;;;5045336;28;20032;-93
2021/08/26 11:37:07;;;;;;;0.00;0.00;;;29.30;35.40;;;;;;5046606;28;20124;-93
2021/08/26 11:39:39;;;;;;;0.52;0.52;;;28.50;37.10;;;;;;5031596;28;20449;-93
2021/08/26 11:42:10;;;;;;;0.22;0.22;;;28.70;37.10;;;;;;5031489;28;20021;-93
2021/08/26 11:44:36;;;;;;;0.10;0.10;;;28.80;38.20;;;;;;5047304;28;20039;-93
2021/08/26 11:47:03;;;;;;;0.20;0.20;;;28.50;37.70;;;;;;5049682;28;20897;-93
2021/08/26 11:49:47;;;;;;;0.10;0.10;;;28.70;35.00;;;;;;5046776;28;20033;-93
2021/08/26 11:52:17;;;;;;;0.88;0.32;;;28.50;36.60;;;;;;5042521;28;20029;-93
2021/08/26 11:54:45;;;;;;;0.50;0.47;;;28.40;38.30;;;;;;5045369;28;20140;-93
2021/08/26 11:57:12;;;;;;;0.65;0.45;;;28.60;37.60;;;;;;5048938;28;20420;-91
2021/08/26 11:59:40;;;;;;;0.15;0.15;;;28.50;38.40;;;;;;5032980;28;20037;-92
2021/08/26 12:02:27;;;;;;;0.10;0.10;;;28.20;38.30;;;;;;5035318;28;20091;-93
2021/08/26 12:04:57;;;;;;;0.15;0.10;;;28.10;38.30;;;;;;5042687;28;20033;-93
2021/08/26 12:07:28;;;;;;;0.10;0.10;;;28.40;39.60;;;;;;5045054;28;20075;-92
2021/08/26 12:09:57;;;;;;;0.10;0.10;;;28.30;39.90;;;;;;5034426;28;20039;-92
2021/08/26 12:12:23;;;;;;;0.28;0.25;;;28.40;41.30;;;;;;5063692;28;20032;-92
2021/08/26 12:14:49;;;;;;;0.52;0.52;;;28.60;40.20;;;;;;5045618;28;20101;-93
2021/08/26 12:17:19;;;;;;;0.20;0.17;;;28.80;39.70;;;;;;5043878;28;20207;-93
2021/08/26 12:19:47;;;;;;;0.05;0.05;;;28.50;39.50;;;;;;5043231;28;20501;-94
2021/08/26 12:22:15;;;;;;;0.45;0.32;;;28.40;40.30;;;;;;5061658;28;20505;-92
2021/08/26 12:24:57;;;;;;;0.20;0.10;;;28.30;40.50;;;;;;5031984;28;20124;-93
2021/08/26 12:27:25;;;;;;;0.10;0.05;;;28.10;39.30;;;;;;5030586;28;20034;-93
2021/08/26 12:29:51;;;;;;;0.10;0.10;;;27.70;39.20;;;;;;5033383;28;20760;-92
2021/08/26 12:32:26;;;;;;;0.38;0.20;;;27.70;39.20;;;;;;5050320;28;20501;-93
2021/08/26 12:34:52;;;;;;;0.00;0.00;;;27.30;40.80;;;;;;5034916;28;20150;-92
2021/08/26 12:37:18;;;;;;;1.25;0.45;;;27.20;40.70;;;;;;5032224;28;20026;-94
2021/08/26 12:39:47;;;;;;;0.13;0.13;;;27.20;41.20;;;;;;5031494;28;20043;-93
2021/08/26 12:42:19;;;;;;;0.00;0.00;;;27.30;40.00;;;;;;5049090;28;20020;-93
2021/08/26 12:44:46;;;;;;;0.63;0.20;;;27.50;41.50;;;;;;5060535;28;20032;-93
2021/08/26 12:47:25;;;;;;;0.22;0.22;;;27.20;40.50;;;;;;5040166;28;20034;-93
2021/08/26 12:49:50;;;;;;;0.03;0.03;;;26.70;40.90;;;;;;5037707;28;20041;-93
2021/08/26 12:52:16;;;;;;;0.00;0.00;;;26.90;41.10;;;;;;5044573;28;20051;-93
2021/08/26 12:54:42;;;;;;;0.10;0.10;;;27.10;41.10;;;;;;5030064;28;20048;-93
2021/08/26 12:57:26;;;;;;;0.30;0.28;;;26.90;53.90;;;;;;5061515;28;20021;-93